• Join FlightAware (Why Join?)
  • Login
  • US Flag 
09:08AM EDT


 

Airport Tracker/Info


-or-


 

Live Flight TrackerFlight Track Log ✈ CTL309 ✈ 18-Jul-2013 ✈ KOSU - KHAO

Flight Track Log - Related Links

Times and Time Zones

All times are in EDT time to prevent confusion due to time zone crossing. See the CTL309 flight status page for this flight to view local times or setup timezone preferences in your user account.

Time Position Orientation Groundspeed Altitude Reporting Facility
EDT Latitude Longitude Course Direction KTS MPH feet Rate Location/Type
03:45AM 40.0694 -83.1286 239° Southwest 136 157 2,000  Level Indianapolis Center
03:46AM 40.0508 -83.1692 239° Southwest 150 173 2,700 660 Climbing Indianapolis Center
03:47AM 40.0272 -83.2172 237° Southwest 154 177 3,300 540 Climbing Indianapolis Center
03:48AM 40.0036 -83.2653 237° Southwest 159 183 3,900 240 Climbing Indianapolis Center
03:49AM 39.9778 -83.3158 236° Southwest 172 198 3,800  Descending Indianapolis Center
03:50AM 39.9539 -83.3664 238° Southwest 166 191 3,900  Climbing Indianapolis Center
03:51AM 39.9278 -83.4167 236° Southwest 165 190 3,900  Level Indianapolis Center
03:52AM 39.9019 -83.4669 236° Southwest 165 190 3,900  Level Indianapolis Center
03:53AM 39.8775 -83.5203 239° Southwest 167 192 3,900  Level Indianapolis Center
03:54AM 39.8578 -83.5714 243° Southwest 159 183 3,900  Level Indianapolis Center
03:55AM 39.8425 -83.6164 246° West 160 184 4,000  Climbing Indianapolis Center
03:56AM 39.8158 -83.6733 239° Southwest 154 177 4,000  Level Indianapolis Center
03:57AM 39.7956 -83.7128 236° Southwest 157 181 4,000  Level Indianapolis Center
03:58AM 39.7692 -83.7669 238° Southwest 157 181 4,000  Level Indianapolis Center
03:59AM 39.7500 -83.8086 239° Southwest 157 181 4,000 -60 Level Indianapolis Center
04:00AM 39.7164 -83.8633 231° Southwest 162 186 3,900  Descending Indianapolis Center
04:01AM 39.6928 -83.9111 237° Southwest 159 183 4,000  Climbing Indianapolis Center
04:02AM 39.6664 -83.9608 235° Southwest 163 188 4,000  Level Indianapolis Center
04:03AM 39.6425 -84.0083 237° Southwest 162 186 4,000  Level Indianapolis Center
04:04AM 39.6158 -84.0608 237° Southwest 161 185 4,000 -180 Level Indianapolis Center
04:06AM 39.5667 -84.1500 234° Southwest 167 192 3,600 -240 Descending Cincinnati TRACON
04:08AM 39.5215 -84.2178 229° Southwest  Level FlightAware Approximate
04:15AM 39.3500 -84.5167 229° Southwest  Level FlightAware Approximate
04:16AM 39.3638 -84.5219 229° Southwest  Level Estimated
04:17AM 39.3638 -84.5219 229° Southwest  Level Estimated